Cedar Park (Hampton), VA

05:51 AM EDT die 25o September, anno 2017 (GMT -0400)
Paradise In Hampton | | Change Station

Elev 26 ft 37.04 °N, 76.33 °W | Updated 7 seconds ago

Clear
Serena
71.4 °F
Feels Like 71.4 °F
N
3.8
Ventus Variabilis Ventus from Inter Austrum et Zephyrum
Gusts 6.3 mph

Hodie
High -- | Low -- °F
--% Chance of Precip.
Yesterday
High -- | Low -- °F
Precip. -- in
Pressio 30.01 in
Visibilitas 10.0 milia passuum
Clouds Serena
Frigus in quo Ros apparet 69 °F
Umor 91%
Rainfall 0.00 in
Snow Depth Not available.
6:55 AM 6:57 PM
Waxing Crescent, 25% visible
METAR KLFI 250858Z AUTO 09006KT 10SM CLR 20/18 A2999 RMK AO2 SLP162 T01980183 55002 $
Pressio 30.01 in
Visibilitas 10.0 milia passuum
Clouds Serena
Frigus in quo Ros apparet 69 °F
Umor 91%
Rainfall 0.00 in
Snow Depth Not available.
6:55 AM 6:57 PM
Waxing Crescent, 25% visible
METAR KLFI 250858Z AUTO 09006KT 10SM CLR 20/18 A2999 RMK AO2 SLP162 T01980183 55002 $

Get Severe Weather Alerts

Thanks for signing up!

Be on the lookout for a verification email in your inbox.

You'll start receiving the daily forecast at 6 AM.

×

10-Day Weather Forecast

Almanac

Astronomy

Sep. 25, 2017 Rise Set
Actual Time
Civil Twilight
Nautical Twilight
Astronomical Twilight
Moon
Length Of Visible Light
Length of Day
Tomorrow will be .
, % of the Moon is Illuminated

Today's Extremes

State Highs State Lows

Community

WunderPhotos

Category 6

Welcome to Category 6. This is the collective home for Weather Underground's featured writeups by Dr. Jeff Masters (right), Bob Henson (left), Chris Burt, and other regular contributors.

Nearby

Air Quality

  Air Quality AQ Index Pollutant
Not available.

Snow Depth

Station Depth Elevation

Earthquake Activity

City Distance Mag. Time & Date
Minimum magnitude displayed is 2.5.

Coastal Water Temperatures

Locus Calor

Stations

Nearby Weather Stations

Station Location Temp Frigus Venti Frigus in quo Ros apparet Umor Ventus Precip. Elev Renovata Type
                   

Watches & Warnings

There are currently no watches in effect.